Time;durP1;ratioP1;P1;durP2;ratioP2;P2;SDS_P1;SDS_P2;PMS_P1;PMS_P2;Temp;Humidity;BMP_temperature;BMP_pressure;BME280_temperature;BME280_humidity;BME280_pressure;Samples;Min_cycle;Max_cycle;Signal;HPM_P1;HPM_P2
2022/02/24 00:01:44;;;;;;;7.23;3.73;;;4.60;99.90;;;;;;5014155;28;20169;-58
2022/02/24 00:04:10;;;;;;;5.60;3.70;;;4.50;99.90;;;;;;5014133;28;20176;-59
2022/02/24 00:06:36;;;;;;;5.30;3.43;;;4.50;99.90;;;;;;5013852;28;20268;-59
2022/02/24 00:09:02;;;;;;;5.73;3.50;;;4.50;99.90;;;;;;5013704;28;20176;-59
2022/02/24 00:11:27;;;;;;;7.10;3.70;;;4.40;99.90;;;;;;5014034;28;20211;-60
2022/02/24 00:13:53;;;;;;;7.07;3.53;;;4.40;99.90;;;;;;5014055;28;20184;-59
2022/02/24 00:16:19;;;;;;;5.80;3.40;;;4.30;99.90;;;;;;5013540;28;20208;-58
2022/02/24 00:18:44;;;;;;;5.63;3.50;;;4.30;99.90;;;;;;5013974;28;20208;-59
2022/02/24 00:21:10;;;;;;;6.13;3.60;;;4.30;99.90;;;;;;5013773;28;20174;-58
2022/02/24 00:23:35;;;;;;;5.20;3.23;;;4.20;99.90;;;;;;5013945;28;20267;-57
2022/02/24 00:26:01;;;;;;;11.57;5.17;;;4.20;99.90;;;;;;5013373;28;20593;-59
2022/02/24 00:28:26;;;;;;;9.83;4.60;;;4.10;99.90;;;;;;5013862;28;20645;-59
2022/02/24 00:30:52;;;;;;;8.77;4.80;;;4.10;99.90;;;;;;5013689;28;20173;-57
2022/02/24 00:33:18;;;;;;;6.83;3.57;;;4.10;99.90;;;;;;5029287;28;20192;-57
2022/02/24 00:35:43;;;;;;;6.10;3.43;;;4.10;99.90;;;;;;5013484;28;20436;-56
2022/02/24 00:38:09;;;;;;;6.63;3.60;;;4.00;99.90;;;;;;5013442;28;20196;-59
2022/02/24 00:40:34;;;;;;;5.00;3.17;;;4.00;99.90;;;;;;5013544;28;20663;-57
2022/02/24 00:43:00;;;;;;;4.87;2.83;;;3.90;99.90;;;;;;5013404;28;20592;-57
2022/02/24 00:45:25;;;;;;;4.80;3.07;;;3.90;99.90;;;;;;5013397;28;20184;-58
2022/02/24 00:47:51;;;;;;;6.90;3.47;;;3.90;99.90;;;;;;5013207;28;20204;-59
2022/02/24 00:50:16;;;;;;;5.60;3.47;;;3.90;99.90;;;;;;5013292;28;20178;-56
2022/02/24 00:52:42;;;;;;;6.60;2.97;;;3.90;99.90;;;;;;5013292;28;20226;-55
2022/02/24 00:55:08;;;;;;;5.37;2.70;;;3.90;99.90;;;;;;5013164;28;20256;-58
2022/02/24 00:57:33;;;;;;;4.67;2.80;;;3.90;99.90;;;;;;5012773;28;20206;-59
2022/02/24 00:59:59;;;;;;;4.40;2.73;;;3.90;99.90;;;;;;5013042;28;20584;-60
2022/02/24 01:02:25;;;;;;;5.90;2.80;;;3.90;99.90;;;;;;5012993;28;20173;-58
2022/02/24 01:04:50;;;;;;;4.27;2.90;;;3.90;99.90;;;;;;5013064;28;20264;-57
2022/02/24 01:07:16;;;;;;;6.87;3.17;;;3.90;99.90;;;;;;5012531;28;20275;-58
2022/02/24 01:09:41;;;;;;;3.23;2.33;;;3.80;99.90;;;;;;5012849;28;20211;-59
2022/02/24 01:12:08;;;;;;;3.63;2.70;;;3.80;99.90;;;;;;5012843;28;20287;-59
2022/02/24 01:14:33;;;;;;;4.63;2.90;;;3.80;99.90;;;;;;5013008;28;20307;-56
2022/02/24 01:16:59;;;;;;;4.10;2.60;;;3.90;99.90;;;;;;5012455;28;20271;-56
2022/02/24 01:19:25;;;;;;;4.50;2.67;;;3.80;99.90;;;;;;5011822;28;20262;-57
2022/02/24 01:21:50;;;;;;;6.03;3.00;;;3.80;99.90;;;;;;5012305;28;20177;-59
2022/02/24 01:24:16;;;;;;;4.70;2.50;;;3.90;99.90;;;;;;5012661;28;20184;-59
2022/02/24 01:26:41;;;;;;;3.87;2.73;;;3.90;99.90;;;;;;5012444;28;20215;-60
2022/02/24 01:29:07;;;;;;;5.00;2.67;;;3.90;99.90;;;;;;5012676;28;20588;-59
2022/02/24 01:31:33;;;;;;;4.67;2.70;;;3.80;99.90;;;;;;5012477;28;20180;-56
2022/02/24 01:33:58;;;;;;;4.77;2.87;;;3.80;99.90;;;;;;5012502;28;20667;-59
2022/02/24 01:36:24;;;;;;;3.93;2.53;;;3.80;99.90;;;;;;5012277;28;20283;-58
2022/02/24 01:38:49;;;;;;;6.13;3.30;;;3.70;99.90;;;;;;5012289;28;20690;-59
2022/02/24 01:41:15;;;;;;;9.63;4.43;;;3.60;99.90;;;;;;5012492;28;20172;-60
2022/02/24 01:43:46;;;;;;;5.67;3.17;;;3.50;99.90;;;;;;5012582;28;20259;-57
2022/02/24 01:46:12;;;;;;;3.17;2.40;;;3.50;99.90;;;;;;5012174;28;20279;-60
2022/02/24 01:48:37;;;;;;;7.47;3.43;;;3.50;99.90;;;;;;5012395;28;20639;-57
2022/02/24 01:51:03;;;;;;;6.67;3.67;;;3.50;99.90;;;;;;5012409;28;20176;-59
2022/02/24 01:53:28;;;;;;;6.90;3.47;;;3.40;99.90;;;;;;5012227;28;20187;-57
2022/02/24 01:55:54;;;;;;;5.33;2.93;;;3.20;99.90;;;;;;5011972;28;20644;-58
2022/02/24 01:58:20;;;;;;;4.67;3.10;;;3.00;99.90;;;;;;5012100;28;20196;-55
2022/02/24 02:00:46;;;;;;;3.73;2.73;;;3.00;99.90;;;;;;5012165;28;20199;-58
2022/02/24 02:03:11;;;;;;;4.90;2.83;;;2.80;99.90;;;;;;5012239;28;20168;-56
2022/02/24 02:05:37;;;;;;;5.33;3.07;;;2.60;99.90;;;;;;5012067;28;20594;-56
2022/02/24 02:08:04;;;;;;;5.63;3.57;;;2.50;99.90;;;;;;5011988;28;20192;-53
2022/02/24 02:10:30;;;;;;;6.63;4.03;;;2.50;99.90;;;;;;5012103;28;20545;-55
2022/02/24 02:12:56;;;;;;;9.70;3.70;;;2.50;99.90;;;;;;5012320;28;20412;-54
2022/02/24 02:15:22;;;;;;;6.27;3.80;;;2.50;99.90;;;;;;5012124;28;20688;-59
2022/02/24 02:17:48;;;;;;;7.17;4.10;;;2.60;99.90;;;;;;5011518;28;20196;-55
2022/02/24 02:20:15;;;;;;;6.20;3.60;;;2.70;99.90;;;;;;5012122;28;20172;-57
2022/02/24 02:22:42;;;;;;;6.83;3.83;;;2.80;99.90;;;;;;5012089;28;20426;-59
2022/02/24 02:25:09;;;;;;;7.67;4.20;;;2.80;99.90;;;;;;5011841;28;20503;-57
2022/02/24 02:27:37;;;;;;;5.40;3.53;;;2.80;99.90;;;;;;5011610;28;20435;-59
2022/02/24 02:30:04;;;;;;;6.23;3.47;;;2.80;99.90;;;;;;5011966;28;20181;-56
2022/02/24 02:32:31;;;;;;;6.83;3.50;;;2.80;99.90;;;;;;5014995;28;20184;-55
2022/02/24 02:34:56;;;;;;;5.23;3.83;;;2.70;99.90;;;;;;5015858;28;20172;-56
2022/02/24 02:37:22;;;;;;;6.70;3.57;;;2.70;99.90;;;;;;5015423;28;20196;-58
2022/02/24 02:39:48;;;;;;;6.07;3.60;;;2.80;99.90;;;;;;5015782;28;20311;-65
2022/02/24 02:42:15;;;;;;;6.43;4.07;;;2.90;99.90;;;;;;5017034;28;20264;-58
2022/02/24 02:44:40;;;;;;;5.03;4.00;;;3.00;99.90;;;;;;5015679;28;20183;-58
2022/02/24 02:47:06;;;;;;;6.93;3.57;;;3.10;99.90;;;;;;5015275;28;20275;-59
2022/02/24 02:49:32;;;;;;;6.40;4.20;;;3.20;99.90;;;;;;5015600;28;20705;-56
2022/02/24 02:51:57;;;;;;;9.07;4.20;;;3.20;99.90;;;;;;5015433;28;20176;-59
2022/02/24 02:54:23;;;;;;;6.10;3.70;;;3.30;99.90;;;;;;5015493;28;20176;-57
2022/02/24 02:56:48;;;;;;;6.00;3.70;;;3.30;99.90;;;;;;5015115;28;20262;-58
2022/02/24 02:59:17;;;;;;;7.43;4.23;;;3.40;99.90;;;;;;5015399;28;20216;-58
2022/02/24 03:01:52;;;;;;;8.80;4.53;;;3.40;99.90;;;;;;5015267;28;20214;-59
2022/02/24 03:04:18;;;;;;;9.83;5.93;;;3.40;99.90;;;;;;5015358;28;20166;-55
2022/02/24 03:06:44;;;;;;;12.03;7.43;;;3.50;99.90;;;;;;5014936;28;20592;-56
2022/02/24 03:09:09;;;;;;;11.70;6.53;;;3.50;99.90;;;;;;5030368;28;20177;-57
2022/02/24 03:11:35;;;;;;;10.60;6.70;;;3.50;99.90;;;;;;5015243;28;20181;-57
2022/02/24 03:14:01;;;;;;;9.00;6.40;;;3.50;99.90;;;;;;5015189;28;20187;-58
2022/02/24 03:16:26;;;;;;;8.60;5.70;;;3.60;99.90;;;;;;5014424;28;20592;-56
2022/02/24 03:18:52;;;;;;;10.00;6.10;;;3.70;99.90;;;;;;5014789;28;20203;-56
2022/02/24 03:21:17;;;;;;;7.30;5.50;;;3.70;99.90;;;;;;5014851;28;20169;-59
2022/02/24 03:23:43;;;;;;;7.60;5.60;;;3.70;99.90;;;;;;5015121;28;20637;-58
2022/02/24 03:26:09;;;;;;;7.73;5.17;;;3.60;99.90;;;;;;5014616;28;20227;-57
2022/02/24 03:28:34;;;;;;;11.23;6.40;;;3.60;99.90;;;;;;5030243;28;20276;-58
2022/02/24 03:31:00;;;;;;;7.80;5.03;;;3.40;99.90;;;;;;5015037;28;20177;-59
2022/02/24 03:33:26;;;;;;;7.90;4.80;;;3.30;99.90;;;;;;5014817;28;20180;-57
2022/02/24 03:35:51;;;;;;;9.33;5.53;;;3.20;99.90;;;;;;5029692;28;20527;-59
2022/02/24 03:38:17;;;;;;;8.13;5.57;;;3.10;99.90;;;;;;5014768;28;20204;-59
2022/02/24 03:40:42;;;;;;;8.90;6.03;;;4.40;99.90;;;;;;5014801;28;20168;-59
2022/02/24 03:43:08;;;;;;;8.03;5.60;;;3.00;99.90;;;;;;5014003;28;20210;-59
2022/02/24 03:45:33;;;;;;;8.57;5.57;;;2.80;99.90;;;;;;5014306;28;20164;-59
2022/02/24 03:47:59;;;;;;;7.50;5.40;;;2.60;99.90;;;;;;5014363;28;20195;-58
2022/02/24 03:50:24;;;;;;;9.27;5.63;;;2.50;99.90;;;;;;5014509;28;20169;-58
2022/02/24 03:52:51;;;;;;;7.40;5.50;;;2.50;99.90;;;;;;5014715;28;20730;-57
2022/02/24 03:55:16;;;;;;;9.93;5.80;;;2.50;99.90;;;;;;5014423;28;20715;-59
2022/02/24 03:57:42;;;;;;;10.87;5.63;;;2.50;99.90;;;;;;5013944;28;20243;-58
2022/02/24 04:00:08;;;;;;;7.57;6.30;;;2.60;99.90;;;;;;5014151;28;20212;-58
2022/02/24 04:02:34;;;;;;;9.10;6.13;;;2.70;99.90;;;;;;5014358;28;20175;-58
2022/02/24 04:05:00;;;;;;;7.20;5.57;;;2.70;99.90;;;;;;5014233;28;20168;-59
2022/02/24 04:07:26;;;;;;;9.70;6.00;;;2.80;99.90;;;;;;5014002;28;20231;-57
2022/02/24 04:09:52;;;;;;;10.17;6.03;;;2.80;99.90;;;;;;5014146;28;20169;-56
2022/02/24 04:12:18;;;;;;;5.97;5.10;;;2.80;99.90;;;;;;5014215;28;20899;-56
2022/02/24 04:14:45;;;;;;;6.30;4.00;;;2.70;99.90;;;;;;5014057;28;20195;-55
2022/02/24 04:17:10;;;;;;;6.10;3.80;;;2.70;99.90;;;;;;5013651;28;20560;-58
2022/02/24 04:19:36;;;;;;;5.33;3.43;;;2.70;99.90;;;;;;5014078;28;20465;-55
2022/02/24 04:22:02;;;;;;;6.93;4.00;;;2.60;99.90;;;;;;5013981;28;20203;-57
2022/02/24 04:24:27;;;;;;;4.93;3.47;;;2.60;99.90;;;;;;5013898;28;20179;-56
2022/02/24 04:26:53;;;;;;;5.83;4.10;;;2.60;99.90;;;;;;5013458;28;20783;-54
2022/02/24 04:29:18;;;;;;;5.63;3.97;;;2.70;99.90;;;;;;5013652;28;20183;-58
2022/02/24 04:31:44;;;;;;;8.00;4.10;;;2.70;99.90;;;;;;5013742;28;20204;-56
2022/02/24 04:34:09;;;;;;;7.67;4.13;;;2.70;99.90;;;;;;5013700;28;20549;-57
2022/02/24 04:36:35;;;;;;;6.60;4.10;;;2.80;99.90;;;;;;5028523;28;20287;-58
2022/02/24 04:39:00;;;;;;;5.57;4.00;;;2.80;99.90;;;;;;5013389;28;20250;-55
2022/02/24 04:41:26;;;;;;;6.00;4.00;;;2.80;99.90;;;;;;5013588;28;20223;-58
2022/02/24 04:43:52;;;;;;;5.57;4.10;;;2.80;99.90;;;;;;5013530;28;20259;-54
2022/02/24 04:46:17;;;;;;;5.27;4.20;;;2.80;99.90;;;;;;5013128;28;20199;-56
2022/02/24 04:48:43;;;;;;;5.73;4.33;;;2.70;99.90;;;;;;5013396;28;20203;-57
2022/02/24 04:51:08;;;;;;;7.73;4.70;;;2.60;99.90;;;;;;5013302;28;20202;-59
2022/02/24 04:53:34;;;;;;;8.40;4.50;;;2.60;99.90;;;;;;5013342;28;20222;-56
2022/02/24 04:56:00;;;;;;;6.47;4.13;;;2.60;99.90;;;;;;5011933;28;20176;-57
2022/02/24 04:58:25;;;;;;;6.70;4.30;;;2.50;99.90;;;;;;5012947;28;20196;-56
2022/02/24 05:00:51;;;;;;;5.60;3.87;;;2.60;99.90;;;;;;5013391;28;20676;-57
2022/02/24 05:03:16;;;;;;;6.67;4.60;;;2.60;99.90;;;;;;5013092;28;20164;-57
2022/02/24 05:05:43;;;;;;;5.77;4.50;;;2.50;99.90;;;;;;5012906;28;20168;-58
2022/02/24 05:08:09;;;;;;;7.80;4.27;;;2.40;99.90;;;;;;5012963;28;20265;-55
2022/02/24 05:10:34;;;;;;;6.47;4.10;;;2.90;99.90;;;;;;5013103;28;20180;-56
2022/02/24 05:13:00;;;;;;;6.83;4.17;;;2.60;99.90;;;;;;5026988;28;20416;-58
2022/02/24 05:15:25;;;;;;;9.00;4.67;;;2.50;99.90;;;;;;5012856;28;20227;-59
2022/02/24 05:17:51;;;;;;;7.23;4.73;;;2.40;99.90;;;;;;5012584;28;20578;-54
2022/02/24 05:20:17;;;;;;;7.50;5.00;;;2.40;99.90;;;;;;5012889;28;20196;-55
2022/02/24 05:22:43;;;;;;;7.00;4.83;;;2.40;99.90;;;;;;5012855;28;20165;-59
2022/02/24 05:25:12;;;;;;;7.80;5.73;;;2.30;99.90;;;;;;5012869;28;20215;-58
2022/02/24 05:27:38;;;;;;;7.97;5.73;;;2.40;99.90;;;;;;5012212;28;20435;-58
2022/02/24 05:30:05;;;;;;;7.43;5.47;;;2.20;99.90;;;;;;5012455;28;20414;-55
2022/02/24 05:32:31;;;;;;;11.37;5.60;;;2.20;99.90;;;;;;5012658;28;20792;-57
2022/02/24 05:34:56;;;;;;;6.80;5.03;;;2.30;99.90;;;;;;5012627;28;20407;-55
2022/02/24 05:37:26;;;;;;;6.80;4.47;;;2.30;99.90;;;;;;5012099;28;20199;-55
2022/02/24 05:39:52;;;;;;;8.93;5.27;;;2.20;99.90;;;;;;5012508;28;20211;-58
2022/02/24 05:42:18;;;;;;;8.27;5.23;;;2.20;99.90;;;;;;5027661;28;20998;-58
2022/02/24 05:44:43;;;;;;;7.60;5.27;;;2.20;99.90;;;;;;5012485;28;20403;-54
2022/02/24 05:47:09;;;;;;;8.73;6.07;;;2.40;99.90;;;;;;5011965;28;20192;-57
2022/02/24 05:49:34;;;;;;;9.27;5.57;;;2.30;99.90;;;;;;5012466;28;20184;-59
2022/02/24 05:52:00;;;;;;;8.50;5.40;;;2.30;99.90;;;;;;5012468;28;20184;-58
2022/02/24 05:54:26;;;;;;;7.23;5.40;;;2.30;99.90;;;;;;5012389;28;20312;-58
2022/02/24 05:56:51;;;;;;;7.13;4.77;;;2.30;99.90;;;;;;5012011;28;20568;-54
2022/02/24 05:59:17;;;;;;;10.83;4.27;;;2.20;99.90;;;;;;5011909;28;20455;-58
2022/02/24 06:01:42;;;;;;;6.87;4.03;;;2.50;99.90;;;;;;5009949;28;20708;-57
2022/02/24 06:04:08;;;;;;;6.60;3.77;;;2.30;99.90;;;;;;5008894;28;20292;-56
2022/02/24 06:06:34;;;;;;;8.07;4.17;;;2.40;99.90;;;;;;5010858;28;20568;-57
2022/02/24 06:09:00;;;;;;;7.07;3.93;;;2.60;99.90;;;;;;5011590;28;20259;-58
2022/02/24 06:11:25;;;;;;;12.03;4.80;;;2.40;99.90;;;;;;5013942;28;20455;-58
2022/02/24 06:13:51;;;;;;;7.57;4.70;;;2.40;99.90;;;;;;5016650;28;20187;-58
2022/02/24 06:16:16;;;;;;;8.33;5.40;;;2.50;99.90;;;;;;5011572;28;20196;-55
2022/02/24 06:18:42;;;;;;;8.33;5.60;;;2.40;99.90;;;;;;5012162;28;20212;-58
2022/02/24 06:21:08;;;;;;;9.10;6.33;;;2.40;99.90;;;;;;5011298;28;20177;-57
2022/02/24 06:23:33;;;;;;;7.90;5.07;;;2.30;99.90;;;;;;5012065;28;20419;-57
2022/02/24 06:25:59;;;;;;;8.37;5.10;;;2.30;99.90;;;;;;5011499;28;20739;-55
2022/02/24 06:28:24;;;;;;;6.07;4.10;;;2.30;99.90;;;;;;5011753;28;20180;-56
2022/02/24 06:30:50;;;;;;;6.80;3.90;;;2.20;99.90;;;;;;5028796;28;20176;-58
2022/02/24 06:33:15;;;;;;;8.87;6.10;;;2.20;99.90;;;;;;5031736;28;20198;-56
2022/02/24 06:35:41;;;;;;;5.60;3.77;;;2.00;99.90;;;;;;5024949;28;20214;-54
2022/02/24 06:38:07;;;;;;;6.70;5.33;;;2.20;99.90;;;;;;5008580;28;20208;-56
2022/02/24 06:40:32;;;;;;;8.90;6.53;;;2.30;99.90;;;;;;5010831;28;20192;-57
2022/02/24 06:42:59;;;;;;;7.90;5.83;;;2.00;99.90;;;;;;5011141;28;20657;-58
2022/02/24 06:45:24;;;;;;;7.27;5.53;;;2.20;99.90;;;;;;5011176;28;20203;-56
2022/02/24 06:47:50;;;;;;;8.57;5.60;;;2.30;99.90;;;;;;5010928;28;20439;-57
2022/02/24 06:50:15;;;;;;;8.67;5.30;;;2.30;99.90;;;;;;5011362;28;20188;-57
2022/02/24 06:52:42;;;;;;;6.90;5.17;;;2.40;99.90;;;;;;5011752;28;20184;-58
2022/02/24 06:55:09;;;;;;;7.50;5.03;;;2.70;99.90;;;;;;5012270;28;20192;-59
2022/02/24 06:57:39;;;;;;;7.90;5.03;;;3.00;99.90;;;;;;5009510;28;20438;-56
2022/02/24 07:00:06;;;;;;;8.07;5.13;;;2.90;99.90;;;;;;5009042;28;20211;-55
2022/02/24 07:02:31;;;;;;;8.20;5.30;;;3.10;99.90;;;;;;5010882;28;20752;-58
2022/02/24 07:04:57;;;;;;;8.80;5.27;;;3.00;99.90;;;;;;5011003;28;20419;-59
2022/02/24 07:07:22;;;;;;;7.50;5.07;;;3.30;99.90;;;;;;5010528;28;20193;-56
2022/02/24 07:09:48;;;;;;;7.23;5.03;;;3.30;99.90;;;;;;5011216;28;20184;-54
2022/02/24 07:12:14;;;;;;;9.10;5.70;;;3.40;99.90;;;;;;5011336;28;20732;-56
2022/02/24 07:14:39;;;;;;;7.50;5.47;;;3.70;99.90;;;;;;5011347;28;20263;-58
2022/02/24 07:17:05;;;;;;;7.03;5.00;;;3.70;99.90;;;;;;5010847;28;20291;-56
2022/02/24 07:19:31;;;;;;;6.40;4.77;;;4.00;99.90;;;;;;5013883;28;20236;-56
2022/02/24 07:21:56;;;;;;;8.17;4.97;;;4.10;99.90;;;;;;5015146;28;20226;-56
2022/02/24 07:24:22;;;;;;;8.40;5.30;;;4.20;99.90;;;;;;5014977;28;20180;-57
2022/02/24 07:26:47;;;;;;;7.97;5.03;;;4.30;99.90;;;;;;5014486;28;20703;-58
2022/02/24 07:29:13;;;;;;;6.87;5.13;;;4.50;99.90;;;;;;5014793;28;20556;-55
2022/02/24 07:31:38;;;;;;;7.03;4.63;;;4.30;99.90;;;;;;5014954;28;20176;-54
2022/02/24 07:34:05;;;;;;;8.07;4.60;;;;;;;;;;5014698;28;20180;-53
2022/02/24 07:36:32;;;;;;;7.37;4.33;;;4.70;99.90;;;;;;5014055;28;20204;-57
2022/02/24 07:38:57;;;;;;;8.80;4.80;;;4.60;99.90;;;;;;5014553;28;20196;-56
2022/02/24 07:41:23;;;;;;;8.23;4.30;;;4.80;99.90;;;;;;5014614;28;20563;-53
2022/02/24 07:43:49;;;;;;;5.43;3.60;;;;;;;;;;5014537;28;20198;-57
2022/02/24 07:46:15;;;;;;;5.90;3.90;;;;;;;;;;5014140;28;20624;-57
2022/02/24 07:48:40;;;;;;;6.67;3.83;;;5.30;99.90;;;;;;5014543;28;20584;-58
2022/02/24 07:51:06;;;;;;;5.10;3.67;;;5.40;99.90;;;;;;5013207;28;20177;-57
2022/02/24 07:53:31;;;;;;;5.33;3.37;;;5.60;99.90;;;;;;5014456;28;20173;-55
2022/02/24 07:55:57;;;;;;;4.73;3.47;;;6.10;99.90;;;;;;5013911;28;20554;-55
2022/02/24 07:58:23;;;;;;;4.77;3.80;;;6.50;99.90;;;;;;5013468;28;20200;-57
2022/02/24 08:00:48;;;;;;;6.30;4.23;;;6.20;99.90;;;;;;5011931;28;20176;-57
2022/02/24 08:03:14;;;;;;;5.20;3.43;;;;;;;;;;5014386;28;20184;-56
2022/02/24 08:05:40;;;;;;;6.60;3.53;;;6.30;99.90;;;;;;5013472;28;20176;-54
2022/02/24 08:08:05;;;;;;;7.33;3.70;;;6.50;99.90;;;;;;5022607;28;20258;-54
2022/02/24 08:10:31;;;;;;;4.57;3.30;;;6.60;99.90;;;;;;5013687;28;20238;-58
2022/02/24 08:12:57;;;;;;;6.03;3.63;;;6.90;99.90;;;;;;5010910;28;20192;-58
2022/02/24 08:15:23;;;;;;;3.70;3.10;;;7.20;99.90;;;;;;5012639;28;20259;-55
2022/02/24 08:17:51;;;;;;;4.43;3.03;;;7.60;99.90;;;;;;5012778;28;20197;-58
2022/02/24 08:20:18;;;;;;;4.73;3.57;;;7.90;99.90;;;;;;5013624;28;20569;-57
2022/02/24 08:22:45;;;;;;;3.90;3.37;;;8.30;99.90;;;;;;5013591;28;20176;-56
2022/02/24 08:25:15;;;;;;;5.43;3.10;;;8.60;99.90;;;;;;5013650;28;20203;-59
2022/02/24 08:27:41;;;;;;;4.60;3.30;;;8.80;99.90;;;;;;5013627;28;20200;-58
2022/02/24 08:30:11;;;;;;;4.43;3.27;;;9.10;99.90;;;;;;5013312;28;20184;-59
2022/02/24 08:32:37;;;;;;;4.20;2.70;;;9.70;99.90;;;;;;5013652;28;20188;-57
2022/02/24 08:35:05;;;;;;;5.13;3.43;;;10.50;99.90;;;;;;5013777;28;20176;-58
2022/02/24 08:37:30;;;;;;;4.23;3.20;;;11.80;99.00;;;;;;5011924;28;20196;-59
2022/02/24 08:39:56;;;;;;;5.15;3.40;;;12.10;98.20;;;;;;5012218;28;20497;-60
2022/02/24 08:42:27;;;;;;;4.97;2.90;;;12.80;96.80;;;;;;5131225;22;20228;-53
2022/02/24 08:44:53;;;;;;;4.50;3.23;;;13.80;95.70;;;;;;5010012;28;20246;-51
2022/02/24 08:47:20;;;;;;;4.03;2.87;;;14.80;94.30;;;;;;5011401;28;20203;-56
2022/02/24 08:49:46;;;;;;;4.67;3.13;;;16.20;93.20;;;;;;5011799;28;20673;-55
2022/02/24 08:52:12;;;;;;;5.40;3.63;;;17.70;90.10;;;;;;5011328;28;20291;-56
2022/02/24 08:54:37;;;;;;;4.72;3.00;;;19.00;84.60;;;;;;5012487;28;20173;-56
2022/02/24 08:57:03;;;;;;;3.70;2.88;;;20.10;80.40;;;;;;5012202;28;20199;-56
2022/02/24 08:59:29;;;;;;;3.88;2.80;;;21.40;75.60;;;;;;5012636;28;20254;-60
2022/02/24 09:01:55;;;;;;;3.30;2.80;;;22.30;71.40;;;;;;5012276;28;20211;-58
2022/02/24 09:04:20;;;;;;;3.97;2.70;;;23.40;67.60;;;;;;5012527;28;20172;-59
2022/02/24 09:06:46;;;;;;;2.83;2.53;;;25.00;62.70;;;;;;5009792;28;20176;-58
2022/02/24 09:09:12;;;;;;;3.20;2.53;;;26.60;58.20;;;;;;5011956;28;20184;-58
2022/02/24 09:11:38;;;;;;;3.40;2.65;;;28.20;54.80;;;;;;5012445;28;20176;-59
2022/02/24 09:14:04;;;;;;;3.35;2.50;;;30.20;51.00;;;;;;5012533;28;20219;-57
2022/02/24 09:16:30;;;;;;;2.83;2.13;;;31.70;45.40;;;;;;5012211;28;20711;-57
2022/02/24 09:18:55;;;;;;;2.55;2.13;;;32.50;42.70;;;;;;5012415;28;20211;-59
2022/02/24 09:21:21;;;;;;;2.05;1.55;;;33.50;39.90;;;;;;5012225;28;20211;-57
2022/02/24 09:23:46;;;;;;;4.07;2.13;;;33.40;39.00;;;;;;5012127;28;20200;-59
2022/02/24 09:26:12;;;;;;;2.25;2.05;;;34.00;47.30;;;;;;5011700;28;20181;-59
2022/02/24 09:28:38;;;;;;;2.25;1.80;;;35.50;39.40;;;;;;5012531;28;20200;-60
2022/02/24 09:31:04;;;;;;;1.77;1.48;;;35.60;35.30;;;;;;5012311;28;20176;-55
2022/02/24 09:33:30;;;;;;;1.52;1.40;;;37.10;33.70;;;;;;5012260;28;20370;-57
2022/02/24 09:35:55;;;;;;;1.63;1.50;;;37.20;32.50;;;;;;5011993;28;20230;-56
2022/02/24 09:38:21;;;;;;;2.55;1.73;;;38.00;31.30;;;;;;5012349;28;20253;-59
2022/02/24 09:40:51;;;;;;;2.80;2.03;;;39.20;32.50;;;;;;5011686;28;20176;-59
2022/02/24 09:43:18;;;;;;;2.00;1.80;;;38.90;31.30;;;;;;5011841;28;20208;-58
2022/02/24 09:45:46;;;;;;;2.40;1.90;;;38.40;29.10;;;;;;5011911;28;20210;-55
2022/02/24 09:48:14;;;;;;;1.92;1.70;;;38.60;29.10;;;;;;5011911;28;20172;-53
2022/02/24 09:50:40;;;;;;;1.70;1.60;;;38.50;29.30;;;;;;5012102;28;20176;-58
2022/02/24 09:53:06;;;;;;;1.70;1.60;;;38.60;29.30;;;;;;5011921;28;20200;-57
2022/02/24 09:55:32;;;;;;;2.55;2.00;;;38.90;29.10;;;;;;5011881;28;20180;-56
2022/02/24 09:57:57;;;;;;;2.22;1.95;;;39.00;29.20;;;;;;5010698;28;20202;-58
2022/02/24 10:00:23;;;;;;;1.80;1.70;;;39.00;28.70;;;;;;5012221;28;20191;-58
2022/02/24 10:02:49;;;;;;;2.20;1.67;;;39.30;28.90;;;;;;5011811;28;20196;-58
2022/02/24 10:05:15;;;;;;;2.30;1.80;;;39.70;28.20;;;;;;5012098;28;20668;-58
2022/02/24 10:07:43;;;;;;;2.03;1.73;;;40.00;27.40;;;;;;5011623;28;20545;-58
2022/02/24 10:10:30;;;;;;;2.17;1.85;;;39.90;28.10;;;;;;5011987;28;20290;-60
2022/02/24 10:13:09;;;;;;;1.73;1.60;;;39.90;27.80;;;;;;5011733;28;20218;-60
2022/02/24 10:15:41;;;;;;;2.25;1.88;;;40.30;27.80;;;;;;5011522;28;20646;-60
2022/02/24 10:18:12;;;;;;;3.40;1.70;;;40.80;26.90;;;;;;5012063;28;20506;-57
2022/02/24 10:20:52;;;;;;;1.98;1.77;;;40.70;27.20;;;;;;5012034;28;20758;-60
2022/02/24 10:23:20;;;;;;;2.40;2.17;;;41.30;27.20;;;;;;5011885;28;20194;-57
2022/02/24 10:25:51;;;;;;;2.85;1.90;;;41.90;26.00;;;;;;5011409;28;20176;-56
2022/02/24 10:28:35;;;;;;;2.33;1.50;;;42.30;26.10;;;;;;5011834;28;20625;-59
2022/02/24 10:31:14;;;;;;;2.08;1.65;;;42.80;26.10;;;;;;5011785;28;20176;-58
2022/02/24 10:33:42;;;;;;;2.75;1.75;;;43.30;25.60;;;;;;5011781;28;20187;-55
2022/02/24 10:36:15;;;;;;;2.20;1.75;;;44.00;24.60;;;;;;5011278;28;20510;-55
2022/02/24 10:38:59;;;;;;;2.03;1.60;;;44.50;24.30;;;;;;5011952;28;20207;-57
2022/02/24 10:41:29;;;;;;;1.70;1.60;;;44.70;24.30;;;;;;5011734;28;20180;-53
2022/02/24 10:44:16;;;;;;;1.58;1.48;;;45.20;24.40;;;;;;5011064;28;20239;-58
2022/02/24 10:46:43;;;;;;;1.52;1.42;;;45.60;22.60;;;;;;5011244;28;20176;-52
2022/02/24 10:49:12;;;;;;;2.33;1.45;;;44.80;22.40;;;;;;5011660;28;20224;-52
2022/02/24 10:51:38;;;;;;;1.38;1.27;;;43.80;23.30;;;;;;5011679;28;20168;-51
2022/02/24 10:54:06;;;;;;;1.50;1.40;;;43.20;23.10;;;;;;5013293;28;20230;-54
2022/02/24 10:56:33;;;;;;;2.00;1.80;;;43.10;23.80;;;;;;5014556;28;20172;-50
2022/02/24 10:58:59;;;;;;;1.73;1.63;;;43.20;24.00;;;;;;5015193;28;20572;-54
2022/02/24 11:01:28;;;;;;;1.55;1.42;;;43.70;24.00;;;;;;5014994;28;20187;-58
2022/02/24 11:03:55;;;;;;;1.88;1.25;;;44.40;23.20;;;;;;5014981;28;20203;-57
2022/02/24 11:06:22;;;;;;;1.52;1.40;;;44.40;22.80;;;;;;5013649;28;20176;-56
2022/02/24 11:08:51;;;;;;;1.80;1.60;;;44.60;22.90;;;;;;5015166;28;20215;-57
2022/02/24 11:11:28;;;;;;;1.80;1.60;;;44.80;22.70;;;;;;5015371;28;20628;-55
2022/02/24 11:13:57;;;;;;;1.77;1.63;;;44.30;22.90;;;;;;5015351;28;20606;-56
2022/02/24 11:16:23;;;;;;;1.42;1.33;;;44.10;23.20;;;;;;5014880;28;20172;-58
2022/02/24 11:18:50;;;;;;;2.10;1.63;;;44.10;22.90;;;;;;5015122;28;20625;-57
2022/02/24 11:21:18;;;;;;;1.52;1.42;;;44.30;22.40;;;;;;5015181;28;20583;-57
2022/02/24 11:23:46;;;;;;;1.85;1.50;;;43.90;22.70;;;;;;5014820;28;20279;-54
2022/02/24 11:26:20;;;;;;;1.88;1.50;;;43.80;23.10;;;;;;5014524;28;20641;-57
2022/02/24 11:29:23;;;;;;;2.30;1.67;;;43.70;22.70;;;;;;5013653;28;20207;-55
2022/02/24 11:31:59;;;;;;;2.05;1.75;;;42.60;23.20;;;;;;5014804;28;20175;-56
2022/02/24 11:34:54;;;;;;;2.78;1.50;;;41.70;23.60;;;;;;5014967;28;20214;-54
2022/02/24 11:37:44;;;;;;;1.73;1.63;;;41.80;23.60;;;;;;5014228;28;20239;-54
2022/02/24 11:40:24;;;;;;;1.98;1.70;;;41.50;23.30;;;;;;5007502;28;20241;-57
2022/02/24 11:43:13;;;;;;;1.75;1.63;;;41.30;24.10;;;;;;5014540;28;20668;-55
2022/02/24 11:45:58;;;;;;;1.55;1.42;;;41.40;23.60;;;;;;5014019;28;20172;-53
2022/02/24 11:48:27;;;;;;;1.80;1.70;;;41.20;24.00;;;;;;5011128;28;20188;-56
2022/02/24 11:50:56;;;;;;;2.70;1.70;;;41.00;24.20;;;;;;5014469;28;20548;-52
2022/02/24 11:53:29;;;;;;;2.10;1.88;;;39.80;25.20;;;;;;5013938;28;20258;-53
2022/02/24 11:56:12;;;;;;;1.63;1.52;;;38.80;25.30;;;;;;5014118;28;20171;-55
2022/02/24 11:58:59;;;;;;;1.83;1.67;;;38.60;25.50;;;;;;5014228;28;20186;-58
2022/02/24 12:01:35;;;;;;;1.92;1.73;;;37.50;26.60;;;;;;5014051;28;20187;-57
2022/02/24 12:04:03;;;;;;;3.45;1.67;;;36.60;26.60;;;;;;5013491;28;20182;-54
2022/02/24 12:06:42;;;;;;;2.10;1.80;;;35.20;26.80;;;;;;5013864;28;20180;-54
2022/02/24 12:09:10;;;;;;;1.63;1.50;;;33.60;28.00;;;;;;5013890;28;20243;-52
2022/02/24 12:11:39;;;;;;;1.60;1.50;;;32.30;28.80;;;;;;5014048;28;20184;-51
2022/02/24 12:14:19;;;;;;;2.20;2.00;;;32.00;29.50;;;;;;5013957;28;20177;-54
2022/02/24 12:17:03;;;;;;;1.88;1.55;;;31.50;29.60;;;;;;5013909;28;20832;-55
2022/02/24 12:19:45;;;;;;;2.67;2.10;;;30.10;31.40;;;;;;5014006;28;20199;-52
2022/02/24 12:22:21;;;;;;;2.78;1.80;;;30.80;33.40;;;;;;5013774;28;20557;-50
2022/02/24 12:24:52;;;;;;;2.15;1.95;;;29.00;33.20;;;;;;5013797;28;20526;-53
2022/02/24 12:27:33;;;;;;;2.58;2.10;;;28.90;33.30;;;;;;5013304;28;20645;-54
2022/02/24 12:30:04;;;;;;;3.00;1.80;;;28.60;33.50;;;;;;5013536;28;20208;-54
2022/02/24 12:32:47;;;;;;;1.55;1.45;;;28.60;33.50;;;;;;5013611;28;20192;-50
2022/02/24 12:35:18;;;;;;;5.03;2.10;;;28.00;34.10;;;;;;5013461;28;20180;-52
2022/02/24 12:37:45;;;;;;;1.95;1.75;;;27.50;35.60;;;;;;5013378;28;20184;-56
2022/02/24 12:40:25;;;;;;;1.75;1.63;;;27.70;34.60;;;;;;5013499;28;20175;-52
2022/02/24 12:42:51;;;;;;;1.92;1.70;;;27.30;35.60;;;;;;5013326;28;20220;-55
2022/02/24 12:45:21;;;;;;;1.98;1.77;;;27.00;35.40;;;;;;5013464;28;20177;-55
2022/02/24 12:47:51;;;;;;;2.15;1.80;;;26.90;35.70;;;;;;5012981;28;20815;-51
2022/02/24 12:50:25;;;;;;;2.00;1.77;;;26.60;36.30;;;;;;5013351;28;20206;-51
2022/02/24 12:52:51;;;;;;;1.77;1.67;;;26.30;37.50;;;;;;5013196;28;20561;-54
2022/02/24 12:55:18;;;;;;;2.75;1.63;;;25.40;37.30;;;;;;5013247;28;20180;-53
2022/02/24 12:57:45;;;;;;;2.10;1.90;;;24.50;38.90;;;;;;5012925;28;20652;-54